Time;durP1;ratioP1;P1;durP2;ratioP2;P2;SDS_P1;SDS_P2;PMS_P1;PMS_P2;Temp;Humidity;BMP_temperature;BMP_pressure;BME280_temperature;BME280_humidity;BME280_pressure;Samples;Min_cycle;Max_cycle;Signal;HPM_P1;HPM_P2
2022/12/21 00:01:39;;;;;;;13.53;6.97;;;10.00;99.90;;;;;;4990739;28;20454;-74
2022/12/21 00:04:26;;;;;;;10.57;6.77;;;10.00;99.90;;;;;;4988144;28;20458;-75
2022/12/21 00:07:12;;;;;;;12.70;7.40;;;10.00;99.90;;;;;;4988596;28;20455;-75
2022/12/21 00:09:59;;;;;;;11.37;7.00;;;9.90;99.90;;;;;;4990272;28;20528;-75
2022/12/21 00:12:45;;;;;;;10.23;7.03;;;9.80;99.90;;;;;;4991809;28;20470;-75
2022/12/21 00:15:30;;;;;;;11.27;8.00;;;9.80;99.90;;;;;;4990458;28;20446;-74
2022/12/21 00:18:16;;;;;;;7.67;6.73;;;9.80;99.90;;;;;;4989718;28;21074;-75
2022/12/21 00:21:04;;;;;;;14.53;8.00;;;9.80;99.90;;;;;;4983793;28;20447;-75
2022/12/21 00:23:51;;;;;;;8.07;6.70;;;9.80;99.90;;;;;;4988209;28;20475;-74
2022/12/21 00:26:38;;;;;;;10.60;6.93;;;9.80;99.90;;;;;;4989029;28;20440;-75
2022/12/21 00:29:24;;;;;;;9.87;6.20;;;9.90;99.90;;;;;;4985497;28;20520;-75
2022/12/21 00:32:10;;;;;;;13.33;7.10;;;9.80;99.90;;;;;;4989591;28;20481;-75
2022/12/21 00:34:55;;;;;;;6.70;5.33;;;9.90;99.90;;;;;;4985822;28;20975;-75
2022/12/21 00:37:41;;;;;;;12.80;7.80;;;9.90;99.90;;;;;;4990120;28;20458;-75
2022/12/21 00:40:27;;;;;;;9.90;7.03;;;9.90;99.90;;;;;;4988082;28;20454;-75
2022/12/21 00:43:14;;;;;;;7.77;6.30;;;9.90;99.90;;;;;;4990499;28;20474;-75
2022/12/21 00:46:00;;;;;;;9.50;6.80;;;9.90;99.90;;;;;;4972196;28;20494;-75
2022/12/21 00:48:46;;;;;;;16.23;7.57;;;9.90;99.90;;;;;;4972253;28;20432;-75
2022/12/21 00:51:34;;;;;;;13.00;7.60;;;10.00;99.90;;;;;;4990434;28;20425;-75
2022/12/21 00:54:20;;;;;;;9.90;7.10;;;10.00;99.90;;;;;;4991176;28;20458;-75
2022/12/21 00:57:06;;;;;;;10.20;7.63;;;10.00;99.90;;;;;;4984067;28;20450;-75
2022/12/21 00:59:52;;;;;;;9.60;7.80;;;10.10;99.90;;;;;;4981043;28;20591;-74
2022/12/21 01:02:38;;;;;;;12.57;8.27;;;10.10;99.90;;;;;;4990170;28;20449;-75
2022/12/21 01:05:24;;;;;;;13.43;7.40;;;10.20;99.90;;;;;;4991423;28;20433;-75
2022/12/21 01:08:10;;;;;;;12.67;7.83;;;10.20;99.90;;;;;;4992177;28;20445;-75
2022/12/21 01:11:00;;;;;;;8.03;7.23;;;10.10;99.90;;;;;;4990801;28;20485;-75
2022/12/21 01:13:45;;;;;;;10.43;7.93;;;10.10;99.90;;;;;;4983436;28;20688;-75
2022/12/21 01:16:33;;;;;;;8.97;7.30;;;10.10;99.90;;;;;;4987226;28;20598;-75
2022/12/21 01:19:20;;;;;;;14.93;8.20;;;10.00;99.90;;;;;;4990299;28;20450;-75
2022/12/21 01:22:06;;;;;;;12.50;8.50;;;10.10;99.90;;;;;;4993932;28;20820;-75
2022/12/21 01:24:52;;;;;;;14.67;9.03;;;10.00;99.90;;;;;;4989535;28;20457;-74
2022/12/21 01:27:38;;;;;;;13.00;9.20;;;10.00;99.90;;;;;;4989363;28;20446;-75
2022/12/21 01:30:24;;;;;;;16.30;9.20;;;10.00;99.90;;;;;;4997488;28;20445;-75
2022/12/21 01:33:14;;;;;;;11.30;9.80;;;9.90;99.90;;;;;;4990361;28;20478;-75
2022/12/21 01:36:04;;;;;;;14.83;10.30;;;9.90;99.90;;;;;;4989456;28;20441;-75
2022/12/21 01:38:50;;;;;;;11.07;9.90;;;9.90;99.90;;;;;;4988498;28;20959;-75
2022/12/21 01:41:35;;;;;;;11.87;9.70;;;9.90;99.90;;;;;;4986958;28;20598;-75
2022/12/21 01:44:58;;;;;;;13.40;9.90;;;9.90;99.90;;;;;;4987262;28;20533;-75
2022/12/21 01:47:48;;;;;;;11.07;9.17;;;9.80;99.90;;;;;;4986707;28;20577;-75
2022/12/21 01:50:43;;;;;;;14.00;8.30;;;9.90;99.90;;;;;;4987492;28;20457;-75
2022/12/21 01:53:33;;;;;;;12.07;9.50;;;9.90;99.90;;;;;;5019058;22;21011;-74
2022/12/21 01:56:23;;;;;;;15.10;9.10;;;9.90;99.90;;;;;;5031547;28;20453;-75
2022/12/21 01:59:13;;;;;;;12.53;9.73;;;9.90;99.90;;;;;;5027711;28;20957;-75
2022/12/21 02:02:01;;;;;;;11.10;9.10;;;9.90;99.90;;;;;;5031367;28;20571;-75
2022/12/21 02:04:47;;;;;;;13.23;11.03;;;9.90;99.90;;;;;;5013677;28;20480;-74
2022/12/21 02:07:35;;;;;;;14.30;9.90;;;9.90;99.90;;;;;;5011656;28;20453;-77
2022/12/21 02:10:21;;;;;;;14.83;9.37;;;9.90;99.90;;;;;;5011515;28;20524;-74
2022/12/21 02:13:10;;;;;;;14.13;10.03;;;9.90;99.90;;;;;;5013045;28;20476;-74
2022/12/21 02:16:17;;;;;;;13.00;10.30;;;9.90;99.90;;;;;;5010906;28;20450;-74
2022/12/21 02:19:43;;;;;;;14.47;10.40;;;10.00;99.90;;;;;;5003005;28;20445;-74
2022/12/21 02:22:48;;;;;;;10.57;8.77;;;10.00;99.90;;;;;;5010814;28;20469;-74
2022/12/21 02:25:59;;;;;;;11.93;9.00;;;10.00;99.90;;;;;;5012667;28;20449;-75
2022/12/21 02:29:21;;;;;;;10.33;9.23;;;10.00;99.90;;;;;;5002130;28;21011;-75
2022/12/21 02:32:17;;;;;;;13.83;9.20;;;10.00;99.90;;;;;;5009649;28;20517;-74
2022/12/21 02:35:15;;;;;;;12.80;9.33;;;10.00;99.90;;;;;;5010245;28;20587;-75
2022/12/21 02:38:09;;;;;;;19.70;8.73;;;10.10;99.90;;;;;;5006149;28;20441;-74
2022/12/21 02:41:03;;;;;;;12.13;9.00;;;10.10;99.90;;;;;;5014843;28;20445;-74
2022/12/21 02:44:15;;;;;;;13.03;9.03;;;10.10;99.90;;;;;;5013455;28;20457;-75
2022/12/21 02:47:07;;;;;;;9.73;7.13;;;10.10;99.90;;;;;;5012815;28;20508;-76
2022/12/21 02:50:00;;;;;;;11.00;8.83;;;10.10;99.90;;;;;;4994308;28;20408;-75
2022/12/21 02:52:52;;;;;;;13.00;9.27;;;10.10;99.90;;;;;;4993521;28;20821;-75
2022/12/21 02:55:38;;;;;;;11.00;8.43;;;10.10;99.90;;;;;;5012037;28;20441;-74
2022/12/21 02:58:24;;;;;;;11.13;7.73;;;10.10;99.90;;;;;;5007842;28;20580;-74
2022/12/21 03:01:22;;;;;;;15.40;7.97;;;10.20;99.90;;;;;;5007503;28;20477;-75
2022/12/21 03:04:27;;;;;;;14.10;8.73;;;10.20;99.90;;;;;;5012238;28;20520;-75
2022/12/21 03:07:39;;;;;;;10.30;7.70;;;10.20;99.90;;;;;;5010122;28;20449;-75
2022/12/21 03:10:35;;;;;;;9.77;7.57;;;10.20;99.90;;;;;;5012226;28;20445;-74
2022/12/21 03:13:30;;;;;;;17.50;9.13;;;10.20;99.90;;;;;;5011548;28;20925;-75
2022/12/21 03:16:24;;;;;;;10.50;7.00;;;10.30;99.90;;;;;;5010897;28;20449;-74
2022/12/21 03:19:19;;;;;;;8.20;6.60;;;10.20;99.90;;;;;;5009410;28;21062;-75
2022/12/21 03:22:11;;;;;;;11.37;7.43;;;10.30;99.90;;;;;;5012322;28;20449;-74
2022/12/21 03:25:05;;;;;;;11.37;7.33;;;10.30;99.90;;;;;;5008145;28;20832;-74
2022/12/21 03:27:55;;;;;;;9.60;7.73;;;10.30;99.90;;;;;;5007542;28;21318;-75
2022/12/21 03:30:43;;;;;;;11.33;7.07;;;10.30;99.90;;;;;;5011800;28;20460;-75
2022/12/21 03:33:32;;;;;;;11.50;7.47;;;10.40;99.90;;;;;;5011257;28;20485;-75
2022/12/21 03:36:22;;;;;;;10.40;7.53;;;10.30;99.90;;;;;;5010832;28;20473;-74
2022/12/21 03:39:11;;;;;;;10.57;7.30;;;10.30;99.90;;;;;;5004447;28;20572;-74
2022/12/21 03:42:03;;;;;;;11.23;7.10;;;10.30;99.90;;;;;;5004879;28;20464;-74
2022/12/21 03:44:54;;;;;;;9.70;7.57;;;10.30;99.90;;;;;;5011086;28;20601;-74
2022/12/21 03:47:46;;;;;;;17.07;7.80;;;10.30;99.90;;;;;;5007740;28;20516;-74
2022/12/21 03:50:35;;;;;;;8.37;7.27;;;10.30;99.90;;;;;;5009997;28;20457;-74
2022/12/21 03:53:34;;;;;;;10.10;7.20;;;10.30;99.90;;;;;;5007905;28;20481;-74
2022/12/21 03:56:25;;;;;;;17.13;9.23;;;10.30;99.90;;;;;;5010219;28;20828;-74
2022/12/21 03:59:15;;;;;;;8.63;7.10;;;10.30;99.90;;;;;;5007281;28;21068;-74
2022/12/21 04:02:08;;;;;;;8.50;7.30;;;10.30;99.90;;;;;;5002793;28;21017;-75
2022/12/21 04:04:58;;;;;;;9.40;7.17;;;10.30;99.90;;;;;;5008759;28;20466;-75
2022/12/21 04:07:46;;;;;;;13.23;8.30;;;10.30;99.90;;;;;;5003783;28;20982;-74
2022/12/21 04:10:32;;;;;;;12.10;7.63;;;10.30;99.90;;;;;;5010441;28;20449;-74
2022/12/21 04:13:17;;;;;;;10.33;7.63;;;10.40;99.90;;;;;;5006022;28;20472;-74
2022/12/21 04:16:04;;;;;;;10.60;7.17;;;10.30;99.90;;;;;;5007288;28;20437;-74
2022/12/21 04:21:53;;;;;;;10.57;8.17;;;10.30;99.90;;;;;;5002964;28;20457;-73
2022/12/21 04:30:46;;;;;;;11.47;8.47;;;10.30;99.90;;;;;;5009806;28;20437;-74
2022/12/21 04:33:33;;;;;;;13.90;7.80;;;10.30;99.90;;;;;;5010648;28;20451;-74
2022/12/21 04:39:36;;;;;;;11.23;8.33;;;10.30;99.90;;;;;;4972264;28;20539;-74
2022/12/21 04:42:22;;;;;;;12.63;9.20;;;10.30;99.90;;;;;;4969506;28;20427;-74
2022/12/21 04:45:09;;;;;;;12.17;8.67;;;10.30;99.90;;;;;;5003918;28;20433;-73
2022/12/21 04:47:54;;;;;;;15.23;8.90;;;10.30;99.90;;;;;;4996963;28;20446;-74
2022/12/21 04:50:42;;;;;;;10.00;8.97;;;10.30;99.90;;;;;;4992171;28;20429;-74
2022/12/21 04:53:28;;;;;;;11.00;7.87;;;10.30;99.90;;;;;;5008145;28;20604;-73
2022/12/21 04:56:14;;;;;;;13.73;9.57;;;10.30;99.90;;;;;;5008250;28;20453;-73
2022/12/21 04:59:00;;;;;;;11.67;8.77;;;10.20;99.90;;;;;;5002382;28;20210;-74
2022/12/21 05:01:45;;;;;;;10.27;8.37;;;10.20;99.90;;;;;;5013899;28;20449;-73
2022/12/21 05:04:31;;;;;;;10.70;8.13;;;10.30;99.90;;;;;;5010421;28;20874;-74
2022/12/21 05:07:18;;;;;;;10.83;7.97;;;10.20;99.90;;;;;;5008270;28;20465;-75
2022/12/21 05:10:04;;;;;;;11.40;8.90;;;10.30;99.90;;;;;;5012612;28;20452;-73
2022/12/21 05:12:50;;;;;;;9.60;8.30;;;10.30;99.90;;;;;;5010031;28;20468;-74
2022/12/21 05:15:36;;;;;;;13.23;9.10;;;10.30;99.90;;;;;;5006504;28;20444;-73
2022/12/21 05:18:22;;;;;;;9.50;8.53;;;10.20;99.90;;;;;;5007882;28;20528;-73
2022/12/21 05:21:08;;;;;;;15.20;9.30;;;10.20;99.90;;;;;;5005122;28;20445;-73
2022/12/21 05:23:55;;;;;;;12.20;9.03;;;10.20;99.90;;;;;;5006717;28;20842;-73
2022/12/21 05:26:40;;;;;;;11.93;9.23;;;10.20;99.90;;;;;;5010167;28;20452;-73
2022/12/21 05:29:26;;;;;;;9.77;8.20;;;10.20;99.90;;;;;;5013359;28;20504;-74
2022/12/21 05:32:12;;;;;;;13.50;9.77;;;10.20;99.90;;;;;;5007135;28;20437;-75
2022/12/21 05:34:57;;;;;;;10.97;9.00;;;10.20;99.90;;;;;;5010492;28;20639;-74
2022/12/21 05:37:43;;;;;;;14.73;9.20;;;10.30;99.90;;;;;;5009650;28;20461;-73
2022/12/21 05:40:30;;;;;;;11.10;7.90;;;10.20;99.90;;;;;;5014458;28;20453;-74
2022/12/21 05:43:15;;;;;;;9.60;7.10;;;10.20;99.90;;;;;;5014048;28;20532;-73
2022/12/21 05:46:02;;;;;;;10.43;7.90;;;10.30;99.90;;;;;;5008354;28;20480;-73
2022/12/21 05:48:48;;;;;;;14.57;8.33;;;10.40;99.90;;;;;;5011829;28;20817;-74
2022/12/21 05:51:34;;;;;;;11.67;8.77;;;10.40;99.90;;;;;;5013720;28;20600;-73
2022/12/21 05:54:20;;;;;;;8.13;7.43;;;10.40;99.90;;;;;;5013129;28;20481;-73
2022/12/21 05:57:07;;;;;;;9.87;7.37;;;10.30;99.90;;;;;;5004622;28;20528;-74
2022/12/21 05:59:52;;;;;;;8.93;7.53;;;10.40;99.90;;;;;;5008645;28;20509;-74
2022/12/21 06:02:41;;;;;;;9.10;7.37;;;10.40;99.90;;;;;;5012709;28;20437;-73
2022/12/21 06:05:27;;;;;;;14.47;6.90;;;10.40;99.90;;;;;;5010754;28;20445;-76
2022/12/21 06:08:12;;;;;;;8.87;7.80;;;10.40;99.90;;;;;;5010209;28;20457;-75
2022/12/21 06:11:03;;;;;;;8.47;7.57;;;10.40;99.90;;;;;;5013357;28;20801;-73
2022/12/21 06:13:50;;;;;;;9.53;6.63;;;10.40;99.90;;;;;;5012401;28;20531;-72
2022/12/21 06:16:36;;;;;;;14.83;7.40;;;10.40;99.90;;;;;;5006140;28;20465;-73
2022/12/21 06:19:21;;;;;;;11.33;7.10;;;10.40;99.90;;;;;;5008528;28;20452;-73
2022/12/21 06:22:07;;;;;;;8.60;7.50;;;10.40;99.90;;;;;;5011583;28;20604;-74
2022/12/21 06:24:53;;;;;;;7.77;6.87;;;10.40;99.90;;;;;;5001935;28;20457;-74
2022/12/21 06:27:39;;;;;;;9.73;6.50;;;10.40;99.90;;;;;;5011719;28;20445;-73
2022/12/21 06:30:26;;;;;;;9.70;7.57;;;10.40;99.90;;;;;;5010337;28;20445;-74
2022/12/21 06:33:11;;;;;;;18.70;8.10;;;10.40;99.90;;;;;;5012678;28;20799;-74
2022/12/21 06:35:57;;;;;;;10.50;6.70;;;10.50;99.90;;;;;;5004992;28;20453;-73
2022/12/21 06:38:43;;;;;;;8.40;6.63;;;10.40;99.90;;;;;;5014840;28;20580;-73
2022/12/21 06:41:28;;;;;;;8.43;6.40;;;10.50;99.90;;;;;;5012488;28;20446;-73
2022/12/21 06:44:14;;;;;;;10.07;7.00;;;10.40;99.90;;;;;;5011471;28;20588;-74
2022/12/21 06:47:01;;;;;;;8.17;6.30;;;10.50;99.90;;;;;;5006478;28;20460;-73
2022/12/21 06:49:47;;;;;;;9.40;6.37;;;10.50;99.90;;;;;;5013365;28;20436;-74
2022/12/21 06:52:33;;;;;;;8.03;6.40;;;10.50;99.90;;;;;;5011948;28;20536;-74
2022/12/21 06:55:18;;;;;;;7.20;6.50;;;10.50;99.90;;;;;;5003605;28;20624;-74
2022/12/21 06:58:04;;;;;;;11.50;7.80;;;10.50;99.90;;;;;;5010637;28;20457;-74
2022/12/21 07:00:50;;;;;;;10.83;5.80;;;10.50;99.90;;;;;;5012481;28;20428;-74
2022/12/21 07:03:37;;;;;;;8.43;6.53;;;10.50;99.90;;;;;;5011893;28;20537;-73
2022/12/21 07:06:26;;;;;;;11.50;6.80;;;10.50;99.90;;;;;;5005228;28;20457;-74
2022/12/21 07:09:12;;;;;;;14.17;8.20;;;10.50;99.90;;;;;;5004825;28;20973;-74
2022/12/21 07:11:58;;;;;;;8.37;7.27;;;10.50;99.90;;;;;;5010385;28;20512;-72
2022/12/21 07:14:44;;;;;;;12.53;8.47;;;10.50;99.90;;;;;;5002301;28;20854;-72
2022/12/21 07:17:29;;;;;;;8.43;6.50;;;10.50;99.90;;;;;;5007611;28;20565;-73
2022/12/21 07:20:17;;;;;;;16.53;9.97;;;10.50;99.90;;;;;;5012894;28;20561;-74
2022/12/21 07:23:02;;;;;;;16.03;10.27;;;10.50;99.90;;;;;;5011326;28;21002;-74
2022/12/21 07:25:48;;;;;;;11.17;7.90;;;10.50;99.90;;;;;;5001873;28;20500;-73
2022/12/21 07:28:34;;;;;;;17.77;8.33;;;10.50;99.90;;;;;;5005780;28;20453;-72
2022/12/21 07:31:21;;;;;;;9.57;8.33;;;10.50;99.90;;;;;;5003719;28;20800;-74
2022/12/21 07:34:07;;;;;;;13.97;8.20;;;10.50;99.90;;;;;;5008235;28;20838;-73
2022/12/21 07:36:54;;;;;;;9.70;7.60;;;10.50;99.90;;;;;;5008556;28;20860;-74
2022/12/21 07:39:39;;;;;;;12.30;7.40;;;10.50;99.90;;;;;;5012657;28;20945;-73
2022/12/21 07:42:25;;;;;;;11.03;6.83;;;10.60;99.90;;;;;;5010919;28;20825;-73
2022/12/21 07:45:12;;;;;;;11.27;7.20;;;10.50;99.90;;;;;;5002034;28;20469;-73
2022/12/21 07:47:58;;;;;;;13.13;6.87;;;10.50;99.90;;;;;;5011440;28;20793;-72
2022/12/21 07:50:46;;;;;;;10.60;6.77;;;10.50;99.90;;;;;;5010895;28;20466;-73
2022/12/21 07:53:33;;;;;;;8.83;6.80;;;10.50;99.90;;;;;;5012309;28;20553;-72
2022/12/21 07:56:19;;;;;;;12.27;7.70;;;10.50;99.90;;;;;;4993401;28;20423;-77
2022/12/21 07:59:05;;;;;;;8.53;5.73;;;10.50;99.90;;;;;;5031228;28;20491;-75
2022/12/21 08:01:50;;;;;;;9.10;6.47;;;10.50;99.90;;;;;;5019919;28;20425;-73
2022/12/21 08:04:36;;;;;;;8.80;6.47;;;10.50;99.90;;;;;;5003734;28;20461;-77
2022/12/21 08:07:22;;;;;;;6.77;6.17;;;10.50;99.90;;;;;;5009414;28;20484;-76
2022/12/21 08:10:10;;;;;;;7.80;6.60;;;10.50;99.90;;;;;;5013734;28;20424;-75
2022/12/21 08:12:55;;;;;;;16.73;7.97;;;10.50;99.90;;;;;;4992352;28;20414;-75
2022/12/21 08:15:41;;;;;;;11.37;5.93;;;10.40;99.90;;;;;;4993319;28;20493;-75
2022/12/21 08:18:27;;;;;;;8.60;7.10;;;10.40;99.90;;;;;;5009957;28;20448;-75
2022/12/21 08:21:12;;;;;;;10.20;7.37;;;10.50;99.90;;;;;;5004980;28;20441;-75
2022/12/21 08:23:58;;;;;;;10.90;6.23;;;10.50;99.90;;;;;;5009053;28;20457;-76
2022/12/21 08:26:45;;;;;;;9.80;7.67;;;10.50;99.90;;;;;;5001177;28;20460;-75
2022/12/21 08:29:31;;;;;;;8.00;6.43;;;10.40;99.90;;;;;;5010004;28;20447;-75
2022/12/21 08:32:17;;;;;;;7.90;6.77;;;10.50;99.90;;;;;;5008178;28;20552;-75
2022/12/21 08:35:02;;;;;;;9.97;7.27;;;10.50;99.90;;;;;;5004164;28;20608;-76
2022/12/21 08:37:48;;;;;;;7.90;7.10;;;10.50;99.90;;;;;;5012773;28;20505;-76
2022/12/21 08:40:34;;;;;;;16.43;7.50;;;10.50;99.90;;;;;;5008482;28;20444;-74
2022/12/21 08:43:21;;;;;;;13.37;8.40;;;10.50;99.90;;;;;;5002990;28;20822;-75
2022/12/21 08:46:09;;;;;;;12.93;8.27;;;10.50;99.90;;;;;;5006297;28;20396;-75
2022/12/21 08:48:54;;;;;;;10.50;7.50;;;10.50;99.90;;;;;;5007972;28;20424;-75
2022/12/21 08:51:40;;;;;;;11.73;7.40;;;10.50;99.90;;;;;;5008164;28;20767;-74
2022/12/21 08:54:26;;;;;;;8.40;7.17;;;10.50;99.90;;;;;;5002361;28;20480;-73
2022/12/21 08:57:12;;;;;;;11.00;6.90;;;10.60;99.90;;;;;;5006649;28;20457;-75
2022/12/21 08:59:59;;;;;;;8.20;6.33;;;10.60;99.90;;;;;;5012082;28;20452;-74
2022/12/21 09:02:45;;;;;;;7.70;6.23;;;10.60;99.90;;;;;;5011705;28;20806;-72
2022/12/21 09:05:30;;;;;;;9.33;5.47;;;10.70;99.90;;;;;;5009443;28;20799;-73
2022/12/21 09:08:16;;;;;;;10.10;6.40;;;10.60;99.90;;;;;;5014478;28;20444;-72
2022/12/21 09:11:03;;;;;;;9.33;5.53;;;10.60;99.90;;;;;;5015292;28;20606;-73
2022/12/21 09:13:49;;;;;;;8.50;5.27;;;10.70;99.90;;;;;;5001958;28;20465;-72
2022/12/21 09:16:36;;;;;;;6.90;5.40;;;10.70;99.90;;;;;;5011379;28;20453;-72
2022/12/21 09:19:21;;;;;;;7.57;5.70;;;10.80;99.90;;;;;;5011275;28;20445;-72
2022/12/21 09:22:07;;;;;;;5.70;5.07;;;10.80;99.90;;;;;;5013932;28;20437;-73
2022/12/21 09:24:54;;;;;;;5.07;4.40;;;10.80;99.90;;;;;;5008335;28;20838;-72
2022/12/21 09:27:39;;;;;;;10.20;5.33;;;10.90;99.90;;;;;;5015007;28;20969;-75
2022/12/21 09:30:25;;;;;;;7.27;4.97;;;10.90;99.90;;;;;;5014320;28;20523;-75
2022/12/21 09:33:12;;;;;;;7.03;5.50;;;10.90;99.90;;;;;;5006900;28;20599;-76
2022/12/21 09:35:58;;;;;;;4.80;3.77;;;10.80;99.90;;;;;;5008617;28;20608;-76
2022/12/21 09:38:44;;;;;;;7.70;4.90;;;10.90;99.90;;;;;;5006595;28;20457;-73
2022/12/21 09:41:48;;;;;;;8.93;6.30;;;10.90;99.90;;;;;;5010132;28;20577;-75
2022/12/21 09:44:58;;;;;;;8.00;4.43;;;11.00;99.90;;;;;;5004425;28;20460;-75
2022/12/21 09:47:48;;;;;;;6.97;3.97;;;11.00;99.90;;;;;;5010874;28;20459;-76
2022/12/21 09:50:43;;;;;;;7.40;4.17;;;11.00;99.90;;;;;;5009403;28;20457;-74
2022/12/21 09:53:34;;;;;;;4.87;3.63;;;10.90;99.90;;;;;;5004569;28;21003;-75
2022/12/21 09:56:24;;;;;;;7.83;4.50;;;10.90;99.90;;;;;;5010218;28;20824;-76
2022/12/21 09:59:14;;;;;;;12.43;4.80;;;11.00;99.90;;;;;;5008877;28;20430;-76
2022/12/21 10:02:12;;;;;;;7.20;4.53;;;11.00;99.90;;;;;;5007702;28;20480;-74
2022/12/21 10:05:10;;;;;;;6.93;4.40;;;11.00;99.90;;;;;;5007306;28;20601;-76
2022/12/21 10:08:21;;;;;;;8.57;4.03;;;11.00;99.90;;;;;;5017364;28;20516;-75
2022/12/21 10:11:16;;;;;;;5.70;5.17;;;11.00;99.90;;;;;;5010653;28;20797;-74
2022/12/21 10:14:10;;;;;;;8.03;5.00;;;11.00;99.90;;;;;;5006634;28;20512;-76
2022/12/21 10:17:04;;;;;;;11.93;4.63;;;11.00;99.90;;;;;;5011309;28;20445;-75
2022/12/21 10:20:02;;;;;;;7.43;4.83;;;10.90;99.90;;;;;;5015741;28;20413;-76
2022/12/21 10:22:49;;;;;;;6.60;4.57;;;10.90;99.90;;;;;;5007792;28;20504;-75
2022/12/21 10:25:42;;;;;;;6.17;4.63;;;10.90;99.90;;;;;;5008711;28;20802;-75
2022/12/21 10:28:38;;;;;;;10.83;4.30;;;10.90;99.90;;;;;;5011628;28;20405;-75
2022/12/21 10:31:28;;;;;;;7.50;4.40;;;10.90;99.90;;;;;;5004491;28;20561;-75
2022/12/21 10:34:17;;;;;;;10.20;4.33;;;11.00;99.90;;;;;;5003598;28;20485;-75
2022/12/21 10:37:12;;;;;;;8.47;4.43;;;11.00;99.90;;;;;;5010034;28;20822;-76
2022/12/21 10:39:58;;;;;;;6.83;4.37;;;11.10;99.90;;;;;;5009591;28;20426;-74
2022/12/21 10:42:50;;;;;;;4.47;3.67;;;11.10;99.90;;;;;;5003243;28;20453;-75
2022/12/21 10:45:36;;;;;;;6.47;3.60;;;11.20;99.90;;;;;;4993297;28;20521;-75
2022/12/21 10:48:21;;;;;;;10.07;3.73;;;11.20;99.90;;;;;;4994011;28;20491;-76
2022/12/21 10:51:18;;;;;;;5.87;4.30;;;11.20;99.90;;;;;;4993375;28;20426;-75
2022/12/21 10:54:05;;;;;;;7.20;3.33;;;11.20;99.90;;;;;;5004105;28;20489;-76
2022/12/21 10:56:52;;;;;;;7.90;5.30;;;11.30;99.90;;;;;;5003302;28;20445;-76
2022/12/21 10:59:42;;;;;;;4.40;3.60;;;11.30;99.90;;;;;;5010693;28;20512;-76
2022/12/21 11:02:36;;;;;;;7.23;3.40;;;11.20;99.90;;;;;;5003653;28;20470;-76
2022/12/21 11:05:31;;;;;;;4.53;3.37;;;11.20;99.90;;;;;;5009911;28;20782;-77
2022/12/21 11:08:24;;;;;;;4.87;3.87;;;11.20;99.90;;;;;;5012847;28;20404;-75
2022/12/21 11:11:28;;;;;;;5.70;3.57;;;11.30;99.90;;;;;;5007330;28;20450;-76
2022/12/21 11:14:15;;;;;;;7.60;3.83;;;11.20;99.90;;;;;;5006962;28;20523;-76
2022/12/21 11:17:02;;;;;;;5.80;4.10;;;11.20;99.90;;;;;;5005066;28;20569;-74
2022/12/21 11:19:50;;;;;;;9.17;4.83;;;11.30;99.90;;;;;;5012547;28;20553;-74
2022/12/21 11:22:40;;;;;;;6.63;3.93;;;11.30;99.90;;;;;;5010461;28;20424;-74
2022/12/21 11:25:29;;;;;;;5.30;4.03;;;11.30;99.90;;;;;;5010028;28;20893;-74
2022/12/21 11:28:19;;;;;;;7.07;5.07;;;11.20;99.90;;;;;;5010978;28;20452;-75
2022/12/21 11:31:06;;;;;;;6.00;4.30;;;11.20;99.90;;;;;;5003732;28;20429;-75
2022/12/21 11:33:53;;;;;;;6.80;4.70;;;11.30;99.90;;;;;;4992850;28;20445;-75
2022/12/21 11:36:55;;;;;;;6.90;4.30;;;11.30;99.90;;;;;;4991309;28;20465;-75
2022/12/21 11:39:44;;;;;;;14.60;4.43;;;11.30;99.90;;;;;;5007672;28;20453;-75
2022/12/21 11:42:30;;;;;;;6.30;4.57;;;11.20;99.90;;;;;;5005933;28;20453;-75
2022/12/21 11:45:21;;;;;;;8.57;4.63;;;11.20;99.90;;;;;;5007259;28;20426;-76
2022/12/21 11:48:18;;;;;;;8.30;5.30;;;11.20;99.90;;;;;;5012318;28;20567;-76
2022/12/21 11:51:08;;;;;;;8.30;5.40;;;11.30;99.90;;;;;;5009170;28;20580;-75
2022/12/21 11:54:19;;;;;;;10.00;5.87;;;11.30;99.90;;;;;;5002720;28;20556;-75
2022/12/21 11:57:13;;;;;;;5.03;4.00;;;11.30;99.90;;;;;;4992792;28;20425;-75
2022/12/21 12:00:08;;;;;;;6.67;5.97;;;11.30;99.90;;;;;;4995587;28;20946;-74
2022/12/21 12:03:28;;;;;;;6.83;4.40;;;11.40;99.90;;;;;;4995210;28;20557;-75
2022/12/21 12:06:39;;;;;;;5.93;4.80;;;11.30;99.90;;;;;;4992283;28;20423;-76
2022/12/21 12:09:58;;;;;;;7.40;5.17;;;11.30;99.90;;;;;;5005165;28;20432;-76
2022/12/21 12:12:53;;;;;;;6.47;5.43;;;11.30;99.90;;;;;;5001223;28;20458;-75
2022/12/21 12:15:47;;;;;;;7.67;5.23;;;11.30;99.90;;;;;;4991594;28;21003;-75
2022/12/21 12:18:46;;;;;;;5.10;4.60;;;11.20;99.90;;;;;;4992840;28;20423;-75
2022/12/21 12:21:43;;;;;;;9.20;5.23;;;11.20;99.90;;;;;;4993949;28;20610;-75
2022/12/21 12:24:54;;;;;;;11.20;4.90;;;11.20;99.90;;;;;;4992151;28;20446;-76
2022/12/21 12:27:57;;;;;;;6.63;5.20;;;11.10;99.90;;;;;;4992142;28;20481;-75
2022/12/21 12:30:55;;;;;;;5.93;5.13;;;11.10;99.90;;;;;;4999809;28;20585;-75
2022/12/21 12:33:54;;;;;;;20.47;9.90;;;11.10;99.90;;;;;;5002021;28;20498;-75
2022/12/21 12:36:53;;;;;;;8.60;4.60;;;11.10;99.90;;;;;;4988855;28;20954;-73
2022/12/21 12:39:48;;;;;;;7.77;5.07;;;11.10;99.90;;;;;;5005617;28;21012;-75
2022/12/21 12:42:39;;;;;;;6.97;5.40;;;11.00;99.90;;;;;;4998280;28;20491;-74
2022/12/21 12:45:35;;;;;;;7.13;5.10;;;11.10;99.90;;;;;;5006184;28;20436;-71
2022/12/21 12:48:29;;;;;;;7.90;4.87;;;11.10;99.90;;;;;;5006026;28;20982;-72
2022/12/21 12:51:20;;;;;;;6.57;5.03;;;11.10;99.90;;;;;;5000757;28;20441;-72
2022/12/21 12:54:15;;;;;;;11.03;5.00;;;10.90;99.90;;;;;;4996326;28;21038;-71
2022/12/21 12:57:07;;;;;;;10.67;5.50;;;11.00;99.90;;;;;;5006967;28;20619;-73
2022/12/21 13:00:00;;;;;;;6.00;4.97;;;11.00;99.90;;;;;;5004618;28;20889;-71
2022/12/21 13:02:57;;;;;;;8.27;5.80;;;11.00;99.90;;;;;;4999423;28;20458;-72
2022/12/21 13:05:55;;;;;;;7.60;4.90;;;11.00;99.90;;;;;;5004688;28;20526;-72
2022/12/21 13:08:52;;;;;;;15.70;6.63;;;11.10;99.90;;;;;;5002035;28;20472;-74
2022/12/21 13:11:46;;;;;;;5.47;4.47;;;11.10;99.90;;;;;;5003068;28;20478;-75
2022/12/21 13:14:37;;;;;;;7.47;5.47;;;11.20;99.90;;;;;;5009357;28;20840;-76
2022/12/21 13:17:33;;;;;;;11.33;5.03;;;11.30;99.90;;;;;;4996789;28;20453;-74
2022/12/21 13:20:22;;;;;;;5.80;4.80;;;11.30;99.90;;;;;;5003050;28;20450;-75
2022/12/21 13:23:13;;;;;;;11.23;3.80;;;11.40;99.90;;;;;;4998289;28;20473;-75
2022/12/21 13:26:03;;;;;;;9.43;7.10;;;11.50;99.90;;;;;;5001510;28;20547;-76
2022/12/21 13:28:58;;;;;;;10.00;5.73;;;11.50;99.90;;;;;;5000347;28;20453;-75
2022/12/21 13:31:49;;;;;;;4.80;3.93;;;11.50;99.90;;;;;;4993760;28;20581;-75
2022/12/21 13:34:39;;;;;;;8.67;4.53;;;11.50;99.90;;;;;;5005949;28;20982;-75
2022/12/21 13:37:26;;;;;;;6.80;4.50;;;11.50;99.90;;;;;;5006762;28;20869;-75
2022/12/21 13:40:18;;;;;;;5.37;3.70;;;11.50;99.90;;;;;;4998518;28;20496;-75
2022/12/21 13:43:12;;;;;;;9.63;6.87;;;11.60;99.90;;;;;;5004056;28;21121;-75
2022/12/21 13:46:03;;;;;;;13.90;7.63;;;11.60;99.90;;;;;;5005352;28;20421;-75
2022/12/21 13:48:57;;;;;;;10.40;6.50;;;11.60;99.90;;;;;;5011712;28;20994;-75
2022/12/21 13:51:48;;;;;;;6.10;4.23;;;11.60;99.90;;;;;;5007092;28;20432;-75
2022/12/21 13:54:45;;;;;;;13.03;3.07;;;11.60;99.90;;;;;;5002522;28;20711;-74
2022/12/21 13:57:36;;;;;;;4.67;3.33;;;11.60;99.90;;;;;;5005386;28;20487;-75
2022/12/21 14:00:26;;;;;;;5.57;3.00;;;11.50;99.90;;;;;;5001954;28;20944;-76
2022/12/21 14:03:25;;;;;;;5.43;3.67;;;11.50;99.90;;;;;;4999661;28;20470;-75
2022/12/21 14:06:48;;;;;;;17.93;5.03;;;11.50;99.90;;;;;;5009325;28;20512;-76
2022/12/21 14:09:52;;;;;;;3.83;3.10;;;11.50;99.90;;;;;;5010467;28;20793;-76
2022/12/21 14:12:58;;;;;;;5.60;3.80;;;11.50;99.90;;;;;;5003662;28;20453;-74
2022/12/21 14:15:57;;;;;;;6.20;3.67;;;11.50;99.90;;;;;;5012513;28;20651;-76
2022/12/21 14:18:46;;;;;;;6.37;3.63;;;11.50;99.90;;;;;;4996911;28;20535;-75
2022/12/21 14:21:33;;;;;;;6.23;4.33;;;11.50;99.90;;;;;;5007052;28;20453;-76
2022/12/21 14:24:21;;;;;;;5.43;4.10;;;11.50;99.90;;;;;;5010131;28;20956;-76
2022/12/21 14:27:10;;;;;;;6.57;4.60;;;11.50;99.90;;;;;;5007565;28;20409;-75
2022/12/21 14:30:05;;;;;;;9.67;4.17;;;11.50;99.90;;;;;;5008014;28;20824;-75
2022/12/21 14:32:57;;;;;;;4.60;2.93;;;11.50;99.90;;;;;;5013562;28;21128;-75
2022/12/21 14:35:44;;;;;;;5.50;3.80;;;11.50;99.90;;;;;;5004075;28;20583;-75
2022/12/21 14:38:30;;;;;;;6.97;4.37;;;11.50;99.90;;;;;;5011728;28;20452;-74
2022/12/21 14:41:21;;;;;;;21.73;12.17;;;11.40;99.90;;;;;;4991439;28;20796;-75
2022/12/21 14:44:22;;;;;;;30.40;18.57;;;11.50;99.90;;;;;;5006372;28;20469;-75
2022/12/21 14:47:23;;;;;;;5.77;3.80;;;11.50;99.90;;;;;;5006480;28;20815;-75
2022/12/21 14:50:51;;;;;;;5.13;3.27;;;11.50;99.90;;;;;;5000811;28;20517;-75
2022/12/21 14:53:40;;;;;;;8.47;3.70;;;11.50;99.90;;;;;;4994056;28;20552;-73
2022/12/21 14:56:25;;;;;;;5.30;3.80;;;11.50;99.90;;;;;;4999782;28;20477;-75